sensor_id;sensor_type;location;lat;lon;timestamp;P1;durP1;ratioP1;P2;durP2;ratioP2
8001;SDS011;4046;48.774;8.732;2022-12-07T00:01:28;1.40;;;1.20;;
8001;SDS011;4046;48.774;8.732;2022-12-07T00:03:56;1.30;;;1.10;;
8001;SDS011;4046;48.774;8.732;2022-12-07T00:06:33;1.77;;;1.20;;
8001;SDS011;4046;48.774;8.732;2022-12-07T00:09:02;1.27;;;1.10;;
8001;SDS011;4046;48.774;8.732;2022-12-07T00:11:29;1.30;;;1.20;;
8001;SDS011;4046;48.774;8.732;2022-12-07T00:13:57;1.20;;;1.00;;
8001;SDS011;4046;48.774;8.732;2022-12-07T00:16:26;1.20;;;1.10;;
8001;SDS011;4046;48.774;8.732;2022-12-07T00:18:54;1.23;;;1.10;;
8001;SDS011;4046;48.774;8.732;2022-12-07T00:21:21;1.50;;;1.30;;
8001;SDS011;4046;48.774;8.732;2022-12-07T00:23:50;1.20;;;1.10;;
8001;SDS011;4046;48.774;8.732;2022-12-07T00:26:21;1.40;;;1.20;;
8001;SDS011;4046;48.774;8.732;2022-12-07T00:28:50;1.33;;;1.23;;
8001;SDS011;4046;48.774;8.732;2022-12-07T00:31:25;1.30;;;1.20;;
8001;SDS011;4046;48.774;8.732;2022-12-07T00:33:53;1.30;;;1.20;;
8001;SDS011;4046;48.774;8.732;2022-12-07T00:36:20;1.33;;;1.23;;
8001;SDS011;4046;48.774;8.732;2022-12-07T00:38:48;1.30;;;1.20;;
8001;SDS011;4046;48.774;8.732;2022-12-07T00:41:15;1.20;;;1.00;;
8001;SDS011;4046;48.774;8.732;2022-12-07T00:43:43;1.30;;;1.20;;
8001;SDS011;4046;48.774;8.732;2022-12-07T00:46:11;1.40;;;1.30;;
8001;SDS011;4046;48.774;8.732;2022-12-07T00:48:38;1.20;;;1.10;;
8001;SDS011;4046;48.774;8.732;2022-12-07T00:51:05;1.20;;;1.10;;
8001;SDS011;4046;48.774;8.732;2022-12-07T00:53:35;1.30;;;1.13;;
8001;SDS011;4046;48.774;8.732;2022-12-07T00:56:09;1.20;;;1.00;;
8001;SDS011;4046;48.774;8.732;2022-12-07T00:58:42;1.40;;;1.30;;
8001;SDS011;4046;48.774;8.732;2022-12-07T01:01:09;1.43;;;1.30;;
8001;SDS011;4046;48.774;8.732;2022-12-07T01:03:37;1.40;;;1.30;;
8001;SDS011;4046;48.774;8.732;2022-12-07T01:06:03;1.20;;;1.07;;
8001;SDS011;4046;48.774;8.732;2022-12-07T01:08:30;1.20;;;1.00;;
8001;SDS011;4046;48.774;8.732;2022-12-07T01:10:59;1.30;;;1.20;;
8001;SDS011;4046;48.774;8.732;2022-12-07T01:13:28;1.23;;;1.10;;
8001;SDS011;4046;48.774;8.732;2022-12-07T01:15:58;1.20;;;1.10;;
8001;SDS011;4046;48.774;8.732;2022-12-07T01:18:26;1.20;;;1.10;;
8001;SDS011;4046;48.774;8.732;2022-12-07T01:21:00;1.20;;;1.10;;
8001;SDS011;4046;48.774;8.732;2022-12-07T01:23:28;1.30;;;1.20;;
8001;SDS011;4046;48.774;8.732;2022-12-07T01:25:59;1.20;;;0.90;;
8001;SDS011;4046;48.774;8.732;2022-12-07T01:28:27;1.30;;;1.10;;
8001;SDS011;4046;48.774;8.732;2022-12-07T01:31:01;1.40;;;1.30;;
8001;SDS011;4046;48.774;8.732;2022-12-07T01:33:31;1.50;;;1.40;;
8001;SDS011;4046;48.774;8.732;2022-12-07T01:36:03;1.20;;;1.00;;
8001;SDS011;4046;48.774;8.732;2022-12-07T01:38:30;1.20;;;1.10;;
8001;SDS011;4046;48.774;8.732;2022-12-07T01:40:58;1.30;;;1.10;;
8001;SDS011;4046;48.774;8.732;2022-12-07T01:43:25;1.20;;;1.10;;
8001;SDS011;4046;48.774;8.732;2022-12-07T01:45:53;1.23;;;1.13;;
8001;SDS011;4046;48.774;8.732;2022-12-07T01:48:22;1.20;;;1.00;;
8001;SDS011;4046;48.774;8.732;2022-12-07T01:50:54;1.20;;;1.07;;
8001;SDS011;4046;48.774;8.732;2022-12-07T01:53:25;1.30;;;1.20;;
8001;SDS011;4046;48.774;8.732;2022-12-07T01:55:53;1.33;;;1.23;;
8001;SDS011;4046;48.774;8.732;2022-12-07T01:58:21;1.40;;;1.20;;
8001;SDS011;4046;48.774;8.732;2022-12-07T02:00:48;1.27;;;1.13;;
8001;SDS011;4046;48.774;8.732;2022-12-07T02:03:19;1.30;;;1.20;;
8001;SDS011;4046;48.774;8.732;2022-12-07T02:05:51;1.30;;;1.20;;
8001;SDS011;4046;48.774;8.732;2022-12-07T02:08:19;1.20;;;1.07;;
8001;SDS011;4046;48.774;8.732;2022-12-07T02:10:46;1.20;;;1.00;;
8001;SDS011;4046;48.774;8.732;2022-12-07T02:13:13;1.20;;;1.10;;
8001;SDS011;4046;48.774;8.732;2022-12-07T02:15:53;1.20;;;1.10;;
8001;SDS011;4046;48.774;8.732;2022-12-07T02:18:45;1.27;;;1.10;;
8001;SDS011;4046;48.774;8.732;2022-12-07T02:24:16;1.50;;;1.03;;
8001;SDS011;4046;48.774;8.732;2022-12-07T02:29:33;1.30;;;1.10;;
8001;SDS011;4046;48.774;8.732;2022-12-07T02:32:07;1.20;;;1.00;;
8001;SDS011;4046;48.774;8.732;2022-12-07T02:34:50;1.40;;;1.10;;
8001;SDS011;4046;48.774;8.732;2022-12-07T02:37:19;1.20;;;1.00;;
8001;SDS011;4046;48.774;8.732;2022-12-07T02:39:57;1.20;;;1.00;;
8001;SDS011;4046;48.774;8.732;2022-12-07T02:42:40;1.27;;;1.00;;
8001;SDS011;4046;48.774;8.732;2022-12-07T02:45:12;1.20;;;1.10;;
8001;SDS011;4046;48.774;8.732;2022-12-07T02:47:41;1.30;;;1.10;;
8001;SDS011;4046;48.774;8.732;2022-12-07T02:50:10;1.20;;;1.03;;
8001;SDS011;4046;48.774;8.732;2022-12-07T02:52:36;1.20;;;1.00;;
8001;SDS011;4046;48.774;8.732;2022-12-07T02:55:03;1.20;;;1.00;;
8001;SDS011;4046;48.774;8.732;2022-12-07T02:57:53;1.20;;;1.00;;
8001;SDS011;4046;48.774;8.732;2022-12-07T03:00:44;1.30;;;1.20;;
8001;SDS011;4046;48.774;8.732;2022-12-07T03:03:19;1.20;;;0.90;;
8001;SDS011;4046;48.774;8.732;2022-12-07T03:08:38;1.30;;;1.10;;
8001;SDS011;4046;48.774;8.732;2022-12-07T03:14:13;1.17;;;0.97;;
8001;SDS011;4046;48.774;8.732;2022-12-07T03:16:53;1.30;;;0.97;;
8001;SDS011;4046;48.774;8.732;2022-12-07T03:19:26;1.20;;;0.90;;
8001;SDS011;4046;48.774;8.732;2022-12-07T03:21:55;1.20;;;1.03;;
8001;SDS011;4046;48.774;8.732;2022-12-07T03:24:27;1.20;;;0.93;;
8001;SDS011;4046;48.774;8.732;2022-12-07T03:27:01;1.10;;;0.93;;
8001;SDS011;4046;48.774;8.732;2022-12-07T03:29:34;1.20;;;0.97;;
8001;SDS011;4046;48.774;8.732;2022-12-07T03:32:05;1.10;;;0.90;;
8001;SDS011;4046;48.774;8.732;2022-12-07T03:34:38;1.20;;;1.00;;
8001;SDS011;4046;48.774;8.732;2022-12-07T03:37:16;1.20;;;1.00;;
8001;SDS011;4046;48.774;8.732;2022-12-07T03:40:08;1.20;;;0.90;;
8001;SDS011;4046;48.774;8.732;2022-12-07T03:42:37;1.20;;;0.97;;
8001;SDS011;4046;48.774;8.732;2022-12-07T03:45:03;1.20;;;1.00;;
8001;SDS011;4046;48.774;8.732;2022-12-07T03:47:37;1.23;;;1.10;;
8001;SDS011;4046;48.774;8.732;2022-12-07T03:50:15;1.20;;;0.90;;
8001;SDS011;4046;48.774;8.732;2022-12-07T03:52:56;1.30;;;1.10;;
8001;SDS011;4046;48.774;8.732;2022-12-07T03:55:37;1.20;;;0.90;;
8001;SDS011;4046;48.774;8.732;2022-12-07T03:58:12;1.60;;;0.90;;
8001;SDS011;4046;48.774;8.732;2022-12-07T04:00:42;1.20;;;1.00;;
8001;SDS011;4046;48.774;8.732;2022-12-07T04:03:09;1.20;;;0.97;;
8001;SDS011;4046;48.774;8.732;2022-12-07T04:05:36;1.10;;;0.90;;
8001;SDS011;4046;48.774;8.732;2022-12-07T04:08:03;1.10;;;0.90;;
8001;SDS011;4046;48.774;8.732;2022-12-07T04:10:29;1.20;;;1.00;;
8001;SDS011;4046;48.774;8.732;2022-12-07T04:12:57;1.17;;;0.90;;
8001;SDS011;4046;48.774;8.732;2022-12-07T04:15:23;1.20;;;0.90;;
8001;SDS011;4046;48.774;8.732;2022-12-07T04:17:49;1.20;;;1.00;;
8001;SDS011;4046;48.774;8.732;2022-12-07T04:20:16;1.20;;;0.90;;
8001;SDS011;4046;48.774;8.732;2022-12-07T04:22:42;1.20;;;0.90;;
8001;SDS011;4046;48.774;8.732;2022-12-07T04:25:08;1.20;;;0.90;;
8001;SDS011;4046;48.774;8.732;2022-12-07T04:27:35;1.20;;;0.90;;
8001;SDS011;4046;48.774;8.732;2022-12-07T04:30:01;1.20;;;0.90;;
8001;SDS011;4046;48.774;8.732;2022-12-07T04:32:28;1.20;;;0.90;;
8001;SDS011;4046;48.774;8.732;2022-12-07T04:34:54;1.50;;;0.90;;
8001;SDS011;4046;48.774;8.732;2022-12-07T04:37:20;1.10;;;0.90;;
8001;SDS011;4046;48.774;8.732;2022-12-07T04:39:46;1.13;;;0.90;;
8001;SDS011;4046;48.774;8.732;2022-12-07T04:42:12;1.10;;;0.80;;
8001;SDS011;4046;48.774;8.732;2022-12-07T04:44:39;1.10;;;0.80;;
8001;SDS011;4046;48.774;8.732;2022-12-07T04:47:05;1.20;;;1.10;;
8001;SDS011;4046;48.774;8.732;2022-12-07T04:49:31;1.10;;;0.80;;
8001;SDS011;4046;48.774;8.732;2022-12-07T04:51:57;1.20;;;0.93;;
8001;SDS011;4046;48.774;8.732;2022-12-07T04:54:24;1.30;;;1.10;;
8001;SDS011;4046;48.774;8.732;2022-12-07T04:56:50;1.20;;;0.90;;
8001;SDS011;4046;48.774;8.732;2022-12-07T04:59:16;1.20;;;1.10;;
8001;SDS011;4046;48.774;8.732;2022-12-07T05:01:43;1.20;;;0.90;;
8001;SDS011;4046;48.774;8.732;2022-12-07T05:04:09;1.20;;;0.90;;
8001;SDS011;4046;48.774;8.732;2022-12-07T05:06:36;1.20;;;1.07;;
8001;SDS011;4046;48.774;8.732;2022-12-07T05:09:02;1.20;;;0.90;;
8001;SDS011;4046;48.774;8.732;2022-12-07T05:11:29;1.20;;;0.90;;
8001;SDS011;4046;48.774;8.732;2022-12-07T05:14:09;1.20;;;0.93;;
8001;SDS011;4046;48.774;8.732;2022-12-07T05:16:35;1.10;;;0.80;;
8001;SDS011;4046;48.774;8.732;2022-12-07T05:19:02;1.30;;;0.93;;
8001;SDS011;4046;48.774;8.732;2022-12-07T05:21:29;1.20;;;0.90;;
8001;SDS011;4046;48.774;8.732;2022-12-07T05:23:55;1.10;;;0.80;;
8001;SDS011;4046;48.774;8.732;2022-12-07T05:26:22;1.10;;;0.80;;
8001;SDS011;4046;48.774;8.732;2022-12-07T05:28:52;1.20;;;0.93;;
8001;SDS011;4046;48.774;8.732;2022-12-07T05:31:19;1.20;;;0.97;;
8001;SDS011;4046;48.774;8.732;2022-12-07T05:33:46;1.10;;;0.80;;
8001;SDS011;4046;48.774;8.732;2022-12-07T05:36:12;1.20;;;0.97;;
8001;SDS011;4046;48.774;8.732;2022-12-07T05:38:39;1.20;;;0.90;;
8001;SDS011;4046;48.774;8.732;2022-12-07T05:41:05;1.10;;;0.80;;
8001;SDS011;4046;48.774;8.732;2022-12-07T05:43:32;1.20;;;0.90;;
8001;SDS011;4046;48.774;8.732;2022-12-07T05:45:59;1.20;;;0.90;;
8001;SDS011;4046;48.774;8.732;2022-12-07T05:48:25;1.10;;;0.80;;
8001;SDS011;4046;48.774;8.732;2022-12-07T05:50:52;1.10;;;0.80;;
8001;SDS011;4046;48.774;8.732;2022-12-07T05:53:18;1.10;;;0.80;;
8001;SDS011;4046;48.774;8.732;2022-12-07T05:55:45;1.10;;;0.80;;
8001;SDS011;4046;48.774;8.732;2022-12-07T05:58:11;1.10;;;0.80;;
8001;SDS011;4046;48.774;8.732;2022-12-07T06:00:56;1.20;;;0.90;;
8001;SDS011;4046;48.774;8.732;2022-12-07T06:03:22;1.30;;;0.93;;
8001;SDS011;4046;48.774;8.732;2022-12-07T06:05:48;1.20;;;0.90;;
8001;SDS011;4046;48.774;8.732;2022-12-07T06:08:15;1.20;;;1.00;;
8001;SDS011;4046;48.774;8.732;2022-12-07T06:10:41;1.20;;;1.10;;
8001;SDS011;4046;48.774;8.732;2022-12-07T06:13:08;1.20;;;1.00;;
8001;SDS011;4046;48.774;8.732;2022-12-07T06:15:37;1.20;;;0.83;;
8001;SDS011;4046;48.774;8.732;2022-12-07T06:18:04;1.20;;;0.97;;
8001;SDS011;4046;48.774;8.732;2022-12-07T06:20:30;1.40;;;0.90;;
8001;SDS011;4046;48.774;8.732;2022-12-07T06:22:56;1.20;;;1.00;;
8001;SDS011;4046;48.774;8.732;2022-12-07T06:25:22;1.20;;;1.00;;
8001;SDS011;4046;48.774;8.732;2022-12-07T06:27:48;1.23;;;1.00;;
8001;SDS011;4046;48.774;8.732;2022-12-07T06:30:15;1.27;;;0.97;;
8001;SDS011;4046;48.774;8.732;2022-12-07T06:32:41;1.20;;;1.03;;
8001;SDS011;4046;48.774;8.732;2022-12-07T06:35:07;1.20;;;0.93;;
8001;SDS011;4046;48.774;8.732;2022-12-07T06:37:33;1.30;;;1.00;;
8001;SDS011;4046;48.774;8.732;2022-12-07T06:40:00;1.10;;;0.97;;
8001;SDS011;4046;48.774;8.732;2022-12-07T06:42:26;1.30;;;1.13;;
8001;SDS011;4046;48.774;8.732;2022-12-07T06:44:52;1.30;;;1.00;;
8001;SDS011;4046;48.774;8.732;2022-12-07T06:47:18;1.20;;;0.90;;
8001;SDS011;4046;48.774;8.732;2022-12-07T06:49:44;1.20;;;1.00;;
8001;SDS011;4046;48.774;8.732;2022-12-07T06:52:10;1.20;;;1.00;;
8001;SDS011;4046;48.774;8.732;2022-12-07T06:54:37;1.20;;;1.00;;
8001;SDS011;4046;48.774;8.732;2022-12-07T06:57:03;1.20;;;0.90;;
8001;SDS011;4046;48.774;8.732;2022-12-07T06:59:29;1.20;;;1.10;;
8001;SDS011;4046;48.774;8.732;2022-12-07T07:01:55;1.10;;;0.83;;
8001;SDS011;4046;48.774;8.732;2022-12-07T07:04:21;1.30;;;1.10;;
8001;SDS011;4046;48.774;8.732;2022-12-07T07:06:47;1.20;;;1.00;;
8001;SDS011;4046;48.774;8.732;2022-12-07T07:09:14;1.30;;;1.20;;
8001;SDS011;4046;48.774;8.732;2022-12-07T07:11:40;1.30;;;1.00;;
8001;SDS011;4046;48.774;8.732;2022-12-07T07:14:06;1.30;;;1.10;;
8001;SDS011;4046;48.774;8.732;2022-12-07T07:16:32;1.20;;;1.00;;
8001;SDS011;4046;48.774;8.732;2022-12-07T07:18:58;1.17;;;0.90;;
8001;SDS011;4046;48.774;8.732;2022-12-07T07:21:24;1.30;;;1.13;;
8001;SDS011;4046;48.774;8.732;2022-12-07T07:23:51;1.30;;;0.90;;
8001;SDS011;4046;48.774;8.732;2022-12-07T07:26:17;1.20;;;1.00;;
8001;SDS011;4046;48.774;8.732;2022-12-07T07:28:43;1.20;;;0.93;;
8001;SDS011;4046;48.774;8.732;2022-12-07T07:31:10;1.40;;;1.10;;
8001;SDS011;4046;48.774;8.732;2022-12-07T07:33:36;1.20;;;1.10;;
8001;SDS011;4046;48.774;8.732;2022-12-07T07:36:02;1.30;;;1.10;;
8001;SDS011;4046;48.774;8.732;2022-12-07T07:38:28;1.20;;;0.90;;
8001;SDS011;4046;48.774;8.732;2022-12-07T07:40:55;1.20;;;0.97;;
8001;SDS011;4046;48.774;8.732;2022-12-07T07:43:21;1.20;;;0.90;;
8001;SDS011;4046;48.774;8.732;2022-12-07T07:45:47;1.20;;;1.10;;
8001;SDS011;4046;48.774;8.732;2022-12-07T07:48:14;1.20;;;1.00;;
8001;SDS011;4046;48.774;8.732;2022-12-07T07:50:40;1.30;;;1.03;;
8001;SDS011;4046;48.774;8.732;2022-12-07T07:53:06;1.30;;;1.10;;
8001;SDS011;4046;48.774;8.732;2022-12-07T07:55:32;1.30;;;0.90;;
8001;SDS011;4046;48.774;8.732;2022-12-07T07:57:58;1.20;;;1.00;;
8001;SDS011;4046;48.774;8.732;2022-12-07T08:00:25;1.20;;;0.90;;
8001;SDS011;4046;48.774;8.732;2022-12-07T08:02:51;1.20;;;0.90;;
8001;SDS011;4046;48.774;8.732;2022-12-07T08:05:17;1.20;;;1.00;;
8001;SDS011;4046;48.774;8.732;2022-12-07T08:07:43;1.20;;;0.90;;
8001;SDS011;4046;48.774;8.732;2022-12-07T08:10:10;1.20;;;1.10;;
8001;SDS011;4046;48.774;8.732;2022-12-07T08:12:39;1.30;;;1.10;;
8001;SDS011;4046;48.774;8.732;2022-12-07T08:15:26;1.20;;;1.00;;
8001;SDS011;4046;48.774;8.732;2022-12-07T08:17:53;1.20;;;1.00;;
8001;SDS011;4046;48.774;8.732;2022-12-07T08:20:20;1.20;;;0.90;;
8001;SDS011;4046;48.774;8.732;2022-12-07T08:22:46;1.30;;;1.10;;
8001;SDS011;4046;48.774;8.732;2022-12-07T08:25:12;1.30;;;1.07;;
8001;SDS011;4046;48.774;8.732;2022-12-07T08:27:38;1.30;;;1.00;;
8001;SDS011;4046;48.774;8.732;2022-12-07T08:30:05;1.30;;;1.10;;
8001;SDS011;4046;48.774;8.732;2022-12-07T08:32:31;1.60;;;1.17;;
8001;SDS011;4046;48.774;8.732;2022-12-07T08:34:58;1.20;;;1.00;;
8001;SDS011;4046;48.774;8.732;2022-12-07T08:37:24;1.20;;;0.97;;
8001;SDS011;4046;48.774;8.732;2022-12-07T08:39:50;1.30;;;1.03;;
8001;SDS011;4046;48.774;8.732;2022-12-07T08:42:16;1.20;;;1.10;;
8001;SDS011;4046;48.774;8.732;2022-12-07T08:44:42;1.20;;;1.00;;
8001;SDS011;4046;48.774;8.732;2022-12-07T08:47:08;1.23;;;1.00;;
8001;SDS011;4046;48.774;8.732;2022-12-07T08:49:37;1.30;;;1.10;;
8001;SDS011;4046;48.774;8.732;2022-12-07T08:52:06;1.20;;;1.10;;
8001;SDS011;4046;48.774;8.732;2022-12-07T08:54:33;1.30;;;0.90;;
8001;SDS011;4046;48.774;8.732;2022-12-07T08:57:01;1.20;;;0.93;;
8001;SDS011;4046;48.774;8.732;2022-12-07T08:59:27;1.20;;;1.00;;
8001;SDS011;4046;48.774;8.732;2022-12-07T09:01:54;1.27;;;1.10;;
8001;SDS011;4046;48.774;8.732;2022-12-07T09:04:20;1.30;;;1.17;;
8001;SDS011;4046;48.774;8.732;2022-12-07T09:06:46;1.20;;;1.00;;
8001;SDS011;4046;48.774;8.732;2022-12-07T09:09:13;1.20;;;0.90;;
8001;SDS011;4046;48.774;8.732;2022-12-07T09:11:40;1.20;;;0.97;;
8001;SDS011;4046;48.774;8.732;2022-12-07T09:14:06;1.30;;;1.20;;
8001;SDS011;4046;48.774;8.732;2022-12-07T09:16:32;1.10;;;0.80;;
8001;SDS011;4046;48.774;8.732;2022-12-07T09:18:58;1.20;;;1.00;;
8001;SDS011;4046;48.774;8.732;2022-12-07T09:21:25;1.50;;;1.20;;
8001;SDS011;4046;48.774;8.732;2022-12-07T09:23:51;1.20;;;1.07;;
8001;SDS011;4046;48.774;8.732;2022-12-07T09:26:17;1.20;;;0.93;;
8001;SDS011;4046;48.774;8.732;2022-12-07T09:28:43;1.30;;;1.13;;
8001;SDS011;4046;48.774;8.732;2022-12-07T09:31:09;1.20;;;1.00;;
8001;SDS011;4046;48.774;8.732;2022-12-07T09:33:36;1.20;;;1.00;;
8001;SDS011;4046;48.774;8.732;2022-12-07T09:36:03;1.20;;;0.80;;
8001;SDS011;4046;48.774;8.732;2022-12-07T09:38:29;1.20;;;0.93;;
8001;SDS011;4046;48.774;8.732;2022-12-07T09:40:56;1.23;;;0.90;;
8001;SDS011;4046;48.774;8.732;2022-12-07T09:43:23;1.10;;;0.80;;
8001;SDS011;4046;48.774;8.732;2022-12-07T09:45:52;1.20;;;1.00;;
8001;SDS011;4046;48.774;8.732;2022-12-07T09:48:21;1.30;;;1.10;;
8001;SDS011;4046;48.774;8.732;2022-12-07T09:51:02;1.30;;;1.10;;
8001;SDS011;4046;48.774;8.732;2022-12-07T09:53:37;1.20;;;0.90;;
8001;SDS011;4046;48.774;8.732;2022-12-07T09:56:04;1.30;;;1.00;;
8001;SDS011;4046;48.774;8.732;2022-12-07T09:58:31;1.17;;;0.90;;
8001;SDS011;4046;48.774;8.732;2022-12-07T10:03:31;1.20;;;1.00;;
8001;SDS011;4046;48.774;8.732;2022-12-07T10:05:57;1.27;;;1.17;;
8001;SDS011;4046;48.774;8.732;2022-12-07T10:08:25;1.20;;;1.10;;
8001;SDS011;4046;48.774;8.732;2022-12-07T10:10:52;1.20;;;0.90;;
8001;SDS011;4046;48.774;8.732;2022-12-07T10:13:38;1.20;;;0.97;;
8001;SDS011;4046;48.774;8.732;2022-12-07T10:16:06;1.30;;;1.00;;
8001;SDS011;4046;48.774;8.732;2022-12-07T10:19:20;1.20;;;1.00;;
8001;SDS011;4046;48.774;8.732;2022-12-07T10:22:01;1.20;;;0.90;;
8001;SDS011;4046;48.774;8.732;2022-12-07T10:24:42;1.20;;;1.00;;
8001;SDS011;4046;48.774;8.732;2022-12-07T10:27:19;1.20;;;0.90;;
8001;SDS011;4046;48.774;8.732;2022-12-07T10:29:54;1.20;;;1.00;;
8001;SDS011;4046;48.774;8.732;2022-12-07T10:32:31;1.20;;;1.00;;
8001;SDS011;4046;48.774;8.732;2022-12-07T10:38:08;1.20;;;0.83;;
8001;SDS011;4046;48.774;8.732;2022-12-07T10:40:42;1.20;;;1.00;;
8001;SDS011;4046;48.774;8.732;2022-12-07T10:45:55;1.20;;;1.00;;
8001;SDS011;4046;48.774;8.732;2022-12-07T11:02:14;1.30;;;1.10;;
8001;SDS011;4046;48.774;8.732;2022-12-07T11:04:56;1.23;;;1.00;;
8001;SDS011;4046;48.774;8.732;2022-12-07T11:10:22;1.23;;;0.93;;
8001;SDS011;4046;48.774;8.732;2022-12-07T11:12:59;1.20;;;0.90;;
8001;SDS011;4046;48.774;8.732;2022-12-07T11:21:58;1.20;;;0.90;;
8001;SDS011;4046;48.774;8.732;2022-12-07T11:24:42;1.20;;;0.93;;
8001;SDS011;4046;48.774;8.732;2022-12-07T11:32:49;1.20;;;0.90;;
8001;SDS011;4046;48.774;8.732;2022-12-07T11:38:14;1.10;;;0.90;;
8001;SDS011;4046;48.774;8.732;2022-12-07T11:40:53;1.30;;;1.10;;
8001;SDS011;4046;48.774;8.732;2022-12-07T11:43:42;3.20;;;1.47;;
8001;SDS011;4046;48.774;8.732;2022-12-07T11:46:22;1.30;;;1.03;;
8001;SDS011;4046;48.774;8.732;2022-12-07T11:51:27;1.17;;;0.80;;
8001;SDS011;4046;48.774;8.732;2022-12-07T11:54:05;1.20;;;0.83;;
8001;SDS011;4046;48.774;8.732;2022-12-07T11:56:43;1.40;;;1.07;;
8001;SDS011;4046;48.774;8.732;2022-12-07T11:59:12;1.20;;;1.00;;
8001;SDS011;4046;48.774;8.732;2022-12-07T12:07:19;1.20;;;0.90;;
8001;SDS011;4046;48.774;8.732;2022-12-07T12:10:02;1.30;;;1.20;;
8001;SDS011;4046;48.774;8.732;2022-12-07T12:15:19;1.17;;;0.90;;
8001;SDS011;4046;48.774;8.732;2022-12-07T12:18:07;1.20;;;0.90;;
8001;SDS011;4046;48.774;8.732;2022-12-07T12:21:04;1.30;;;1.00;;
8001;SDS011;4046;48.774;8.732;2022-12-07T12:23:45;1.20;;;1.00;;
8001;SDS011;4046;48.774;8.732;2022-12-07T12:26:20;1.20;;;0.90;;
8001;SDS011;4046;48.774;8.732;2022-12-07T12:28:53;1.20;;;0.80;;
8001;SDS011;4046;48.774;8.732;2022-12-07T12:33:54;1.17;;;0.90;;
8001;SDS011;4046;48.774;8.732;2022-12-07T12:36:28;1.20;;;0.90;;
8001;SDS011;4046;48.774;8.732;2022-12-07T12:39:12;1.20;;;0.90;;
8001;SDS011;4046;48.774;8.732;2022-12-07T12:51:57;1.10;;;0.80;;
8001;SDS011;4046;48.774;8.732;2022-12-07T12:54:28;1.20;;;0.90;;
8001;SDS011;4046;48.774;8.732;2022-12-07T13:02:21;1.30;;;0.90;;
8001;SDS011;4046;48.774;8.732;2022-12-07T13:12:58;1.20;;;0.90;;
8001;SDS011;4046;48.774;8.732;2022-12-07T13:15:38;1.20;;;1.00;;
8001;SDS011;4046;48.774;8.732;2022-12-07T13:20:54;1.30;;;1.00;;
8001;SDS011;4046;48.774;8.732;2022-12-07T13:26:19;1.20;;;0.90;;
8001;SDS011;4046;48.774;8.732;2022-12-07T13:28:49;1.20;;;1.00;;
8001;SDS011;4046;48.774;8.732;2022-12-07T13:34:00;1.20;;;0.83;;
8001;SDS011;4046;48.774;8.732;2022-12-07T13:36:29;1.13;;;0.80;;
8001;SDS011;4046;48.774;8.732;2022-12-07T13:41:49;1.20;;;0.90;;
8001;SDS011;4046;48.774;8.732;2022-12-07T13:44:17;1.20;;;0.80;;
8001;SDS011;4046;48.774;8.732;2022-12-07T13:49:30;1.10;;;0.80;;
8001;SDS011;4046;48.774;8.732;2022-12-07T13:52:14;1.20;;;0.93;;
8001;SDS011;4046;48.774;8.732;2022-12-07T13:54:46;1.10;;;0.80;;
8001;SDS011;4046;48.774;8.732;2022-12-07T13:57:22;1.20;;;0.90;;
8001;SDS011;4046;48.774;8.732;2022-12-07T13:59:50;1.20;;;1.00;;
8001;SDS011;4046;48.774;8.732;2022-12-07T14:02:18;1.67;;;1.00;;
8001;SDS011;4046;48.774;8.732;2022-12-07T14:04:50;1.20;;;0.90;;
8001;SDS011;4046;48.774;8.732;2022-12-07T14:07:27;1.30;;;1.10;;
8001;SDS011;4046;48.774;8.732;2022-12-07T14:09:54;1.10;;;0.80;;
8001;SDS011;4046;48.774;8.732;2022-12-07T14:12:23;1.23;;;0.97;;
8001;SDS011;4046;48.774;8.732;2022-12-07T14:14:51;1.10;;;0.80;;
8001;SDS011;4046;48.774;8.732;2022-12-07T14:17:19;1.20;;;0.93;;
8001;SDS011;4046;48.774;8.732;2022-12-07T14:22:37;1.17;;;0.93;;
8001;SDS011;4046;48.774;8.732;2022-12-07T14:27:39;1.17;;;0.90;;
8001;SDS011;4046;48.774;8.732;2022-12-07T14:30:16;1.20;;;0.90;;
8001;SDS011;4046;48.774;8.732;2022-12-07T14:32:43;1.30;;;1.00;;
8001;SDS011;4046;48.774;8.732;2022-12-07T14:35:15;1.13;;;0.90;;
8001;SDS011;4046;48.774;8.732;2022-12-07T14:37:44;1.23;;;0.97;;
8001;SDS011;4046;48.774;8.732;2022-12-07T14:40:13;1.20;;;0.97;;
8001;SDS011;4046;48.774;8.732;2022-12-07T14:42:40;1.30;;;0.97;;
8001;SDS011;4046;48.774;8.732;2022-12-07T14:45:16;1.20;;;0.90;;
8001;SDS011;4046;48.774;8.732;2022-12-07T14:47:44;1.20;;;0.90;;
8001;SDS011;4046;48.774;8.732;2022-12-07T14:50:12;1.20;;;1.00;;
8001;SDS011;4046;48.774;8.732;2022-12-07T14:52:40;1.10;;;0.80;;
8001;SDS011;4046;48.774;8.732;2022-12-07T14:55:29;1.20;;;1.00;;
8001;SDS011;4046;48.774;8.732;2022-12-07T14:57:55;1.13;;;0.90;;
8001;SDS011;4046;48.774;8.732;2022-12-07T15:00:23;1.20;;;0.90;;
8001;SDS011;4046;48.774;8.732;2022-12-07T15:02:51;1.20;;;0.90;;
8001;SDS011;4046;48.774;8.732;2022-12-07T15:05:17;1.20;;;0.90;;
8001;SDS011;4046;48.774;8.732;2022-12-07T15:07:44;1.20;;;1.00;;
8001;SDS011;4046;48.774;8.732;2022-12-07T15:10:25;1.20;;;0.87;;
8001;SDS011;4046;48.774;8.732;2022-12-07T15:12:55;1.20;;;1.00;;
8001;SDS011;4046;48.774;8.732;2022-12-07T15:15:45;1.13;;;0.80;;
8001;SDS011;4046;48.774;8.732;2022-12-07T15:18:13;1.10;;;0.80;;
8001;SDS011;4046;48.774;8.732;2022-12-07T15:20:39;1.20;;;1.00;;
8001;SDS011;4046;48.774;8.732;2022-12-07T15:23:05;1.20;;;0.80;;
8001;SDS011;4046;48.774;8.732;2022-12-07T15:25:31;1.20;;;0.90;;
8001;SDS011;4046;48.774;8.732;2022-12-07T15:27:58;1.20;;;0.97;;
8001;SDS011;4046;48.774;8.732;2022-12-07T15:30:24;1.10;;;0.83;;
8001;SDS011;4046;48.774;8.732;2022-12-07T15:32:51;1.20;;;1.03;;
8001;SDS011;4046;48.774;8.732;2022-12-07T15:35:18;1.20;;;1.10;;
8001;SDS011;4046;48.774;8.732;2022-12-07T15:37:46;1.20;;;0.90;;
8001;SDS011;4046;48.774;8.732;2022-12-07T15:40:12;1.10;;;0.80;;
8001;SDS011;4046;48.774;8.732;2022-12-07T15:42:39;1.20;;;0.90;;
8001;SDS011;4046;48.774;8.732;2022-12-07T15:45:07;1.23;;;0.90;;
8001;SDS011;4046;48.774;8.732;2022-12-07T15:47:35;1.20;;;1.00;;
8001;SDS011;4046;48.774;8.732;2022-12-07T15:50:03;1.20;;;0.90;;
8001;SDS011;4046;48.774;8.732;2022-12-07T15:52:31;1.13;;;0.80;;
8001;SDS011;4046;48.774;8.732;2022-12-07T15:54:58;1.20;;;1.00;;
8001;SDS011;4046;48.774;8.732;2022-12-07T15:57:26;1.20;;;0.90;;
8001;SDS011;4046;48.774;8.732;2022-12-07T15:59:52;1.20;;;0.97;;
8001;SDS011;4046;48.774;8.732;2022-12-07T16:02:19;2.00;;;1.20;;
8001;SDS011;4046;48.774;8.732;2022-12-07T16:04:45;1.90;;;1.17;;
8001;SDS011;4046;48.774;8.732;2022-12-07T16:07:11;3.57;;;1.50;;
8001;SDS011;4046;48.774;8.732;2022-12-07T16:09:41;2.37;;;1.50;;
8001;SDS011;4046;48.774;8.732;2022-12-07T16:12:08;4.20;;;1.23;;
8001;SDS011;4046;48.774;8.732;2022-12-07T16:14:35;4.60;;;1.57;;
8001;SDS011;4046;48.774;8.732;2022-12-07T16:17:02;1.97;;;1.50;;
8001;SDS011;4046;48.774;8.732;2022-12-07T16:19:30;3.40;;;1.50;;
8001;SDS011;4046;48.774;8.732;2022-12-07T16:21:57;2.17;;;1.40;;
8001;SDS011;4046;48.774;8.732;2022-12-07T16:24:23;1.67;;;1.20;;
8001;SDS011;4046;48.774;8.732;2022-12-07T16:26:49;2.93;;;1.30;;
8001;SDS011;4046;48.774;8.732;2022-12-07T16:29:15;1.57;;;1.40;;
8001;SDS011;4046;48.774;8.732;2022-12-07T16:31:43;1.60;;;1.30;;
8001;SDS011;4046;48.774;8.732;2022-12-07T16:34:10;1.80;;;1.43;;
8001;SDS011;4046;48.774;8.732;2022-12-07T16:36:36;1.30;;;1.20;;
8001;SDS011;4046;48.774;8.732;2022-12-07T16:39:03;1.30;;;1.20;;
8001;SDS011;4046;48.774;8.732;2022-12-07T16:41:30;2.03;;;1.20;;
8001;SDS011;4046;48.774;8.732;2022-12-07T16:43:57;2.90;;;1.37;;
8001;SDS011;4046;48.774;8.732;2022-12-07T16:46:27;1.60;;;1.30;;
8001;SDS011;4046;48.774;8.732;2022-12-07T16:48:53;1.30;;;1.20;;
8001;SDS011;4046;48.774;8.732;2022-12-07T16:51:19;1.93;;;1.30;;
8001;SDS011;4046;48.774;8.732;2022-12-07T16:53:45;2.00;;;1.40;;
8001;SDS011;4046;48.774;8.732;2022-12-07T16:56:12;1.60;;;1.40;;
8001;SDS011;4046;48.774;8.732;2022-12-07T16:58:43;1.53;;;1.43;;
8001;SDS011;4046;48.774;8.732;2022-12-07T17:01:13;1.27;;;1.10;;
8001;SDS011;4046;48.774;8.732;2022-12-07T17:03:48;1.80;;;1.33;;
8001;SDS011;4046;48.774;8.732;2022-12-07T17:06:16;1.30;;;1.20;;
8001;SDS011;4046;48.774;8.732;2022-12-07T17:08:43;1.50;;;1.40;;
8001;SDS011;4046;48.774;8.732;2022-12-07T17:11:11;1.60;;;1.50;;
8001;SDS011;4046;48.774;8.732;2022-12-07T17:13:42;1.30;;;1.10;;
8001;SDS011;4046;48.774;8.732;2022-12-07T17:16:27;1.37;;;1.27;;
8001;SDS011;4046;48.774;8.732;2022-12-07T17:18:54;1.40;;;1.10;;